Terminal Aerodrome Forecast
Issued by NWS

Home | Current Version | Previous Version | Text Only | Print | Product List | Glossary On
Versions: 1 2 3 4 5 6 7 8 9 10 11 12 13 14
000
FTUS45 KLKN 241100
TAFELY
TAF
KELY 241120Z 2412/2512 18013KT P6SM SKC
     FM241700 18014G24KT P6SM SKC
     FM250500 18013KT P6SM SKC=

USA.gov is the U.S. government's official web portal to all federal, state and local government web resources and services.